createdAt,value
2019-01-16T00:02:33.408Z,100982.95
2019-01-16T00:09:04.224Z,100984.26
2019-01-16T00:15:24.745Z,100964.20
2019-01-16T00:21:48.253Z,100969.42
2019-01-16T00:28:15.926Z,100957.59
2019-01-16T00:34:32.260Z,100951.47
2019-01-16T00:40:51.752Z,100942.29
2019-01-16T00:47:12.356Z,100948.84
2019-01-16T00:53:40.570Z,100944.87
2019-01-16T01:00:07.982Z,100954.05
2019-01-16T01:06:39.091Z,100942.66
2019-01-16T01:13:06.896Z,100938.27
2019-01-16T01:19:37.530Z,100928.19
2019-01-16T01:26:20.421Z,100932.56
2019-01-16T01:32:45.111Z,100932.97
2019-01-16T01:39:12.667Z,100928.24
2019-01-16T01:45:40.232Z,100921.18
2019-01-16T01:52:03.340Z,100923.80
2019-01-16T01:58:30.781Z,100922.02
2019-01-16T02:04:57.895Z,100926.38
2019-01-16T02:11:12.116Z,100921.59
2019-01-16T02:17:35.257Z,100923.27
2019-01-16T02:24:14.480Z,100922.85
2019-01-16T02:30:46.148Z,100921.55
2019-01-16T02:37:09.068Z,100916.30
2019-01-16T02:43:39.567Z,100914.14
2019-01-16T02:50:19.807Z,100911.93
2019-01-16T02:57:02.617Z,100894.42
2019-01-16T03:03:20.954Z,100890.95
2019-01-16T03:09:48.496Z,100883.47
2019-01-16T03:16:25.466Z,100884.78
2019-01-16T03:22:47.997Z,100879.04
2019-01-16T03:29:08.172Z,100874.70
2019-01-16T03:35:31.531Z,100863.66
2019-01-16T03:41:56.370Z,100859.21
2019-01-16T03:48:20.972Z,100859.23
2019-01-16T03:54:49.338Z,100848.73
2019-01-16T04:01:14.131Z,100839.00
2019-01-16T04:07:47.740Z,100836.33
2019-01-16T04:14:11.160Z,100817.14
2019-01-16T04:20:26.766Z,100820.66
2019-01-16T04:26:46.349Z,100802.75
2019-01-16T04:33:00.968Z,100788.80
2019-01-16T04:39:28.766Z,100774.78
2019-01-16T04:45:53.582Z,100771.27
2019-01-16T04:52:21.642Z,100768.21
2019-01-16T04:59:03.974Z,100757.30
2019-01-16T05:05:31.958Z,100751.66
2019-01-16T05:12:02.475Z,100745.95
2019-01-16T05:18:42.535Z,100736.83
2019-01-16T05:25:06.268Z,100734.24
2019-01-16T05:31:49.213Z,100718.52
2019-01-16T05:38:25.778Z,100715.91
2019-01-16T05:44:56.570Z,100712.37
2019-01-16T05:51:15.179Z,100711.93
2019-01-16T05:57:39.039Z,100708.44
2019-01-16T06:04:09.910Z,100703.20
2019-01-16T06:10:34.369Z,100696.27
2019-01-16T06:17:11.620Z,100698.47
2019-01-16T06:23:36.416Z,100688.84
2019-01-16T06:30:07.494Z,100685.34
2019-01-16T06:36:31.181Z,100682.80
2019-01-16T06:42:59.260Z,100675.78
2019-01-16T06:49:39.238Z,100674.89
2019-01-16T06:56:13.539Z,100673.60
2019-01-16T07:02:37.087Z,100667.50
2019-01-16T07:09:20.460Z,100659.24
2019-01-16T07:15:46.581Z,100651.78
2019-01-16T07:22:23.431Z,100646.11
2019-01-16T07:28:37.764Z,100653.55
2019-01-16T07:35:01.234Z,100657.44
2019-01-16T07:41:29.524Z,100646.95
2019-01-16T07:48:02.983Z,100648.27
2019-01-16T07:54:26.579Z,100649.13
2019-01-16T08:00:50.085Z,100657.44
2019-01-16T08:07:13.450Z,100661.37
2019-01-16T08:13:48.507Z,100657.02
2019-01-16T08:20:31.459Z,100659.64
2019-01-16T08:26:46.410Z,100654.86
2019-01-16T08:33:17.345Z,100656.17
2019-01-16T08:39:32.120Z,100673.63
2019-01-16T08:45:56.657Z,100666.66
2019-01-16T08:52:34.675Z,100660.54
2019-01-16T08:59:02.502Z,100650.53
2019-01-16T09:05:28.465Z,100662.27
2019-01-16T09:12:11.463Z,100647.89
2019-01-16T09:18:24.580Z,100644.43
2019-01-16T09:24:45.800Z,100630.02
2019-01-16T09:31:16.580Z,100621.24
2019-01-16T09:37:59.428Z,100631.73
2019-01-16T09:44:36.892Z,100619.91
2019-01-16T09:51:07.995Z,100608.13
2019-01-16T09:57:31.511Z,100600.75
2019-01-16T10:03:59.270Z,100596.36
2019-01-16T10:10:30.303Z,100591.98
2019-01-16T10:17:04.064Z,100585.52
2019-01-16T10:23:35.694Z,100580.71
2019-01-16T10:30:00.886Z,100575.87
2019-01-16T10:36:24.640Z,100575.45
2019-01-16T10:42:58.542Z,100563.27
2019-01-16T10:49:21.712Z,100568.94
2019-01-16T10:55:55.333Z,100555.41
2019-01-16T11:02:15.024Z,100546.70
2019-01-16T11:08:51.905Z,100530.53
2019-01-16T11:15:19.928Z,100514.33
2019-01-16T11:21:43.363Z,100507.80
2019-01-16T11:27:59.107Z,100492.05
2019-01-16T11:34:23.115Z,100490.30
2019-01-16T11:40:45.354Z,100466.28
2019-01-16T11:47:16.764Z,100452.73
2019-01-16T11:53:44.789Z,100448.37
2019-01-16T12:00:10.264Z,100444.00
2019-01-16T12:06:44.457Z,100430.88
2019-01-16T12:13:09.335Z,100436.13
2019-01-16T12:19:36.736Z,100423.45
2019-01-16T12:26:08.021Z,100412.51
2019-01-16T12:32:28.228Z,100398.08
2019-01-16T12:38:51.978Z,100379.72
2019-01-16T12:45:28.582Z,100379.25
2019-01-16T12:52:02.244Z,100360.02
2019-01-16T12:58:30.579Z,100333.81
2019-01-16T13:04:58.428Z,100319.38
2019-01-16T13:11:21.621Z,100316.77
2019-01-16T13:17:45.331Z,100311.95
2019-01-16T13:24:14.694Z,100292.28
2019-01-16T13:30:38.224Z,100286.16
2019-01-16T13:37:02.420Z,100272.16
2019-01-16T13:43:27.146Z,100268.23
2019-01-16T13:49:50.435Z,100256.88
2019-01-16T13:56:24.742Z,100230.22
2019-01-16T14:02:48.872Z,100219.74
2019-01-16T14:09:03.227Z,100215.82
2019-01-16T14:15:36.608Z,100202.25
2019-01-16T14:21:59.668Z,100184.33
2019-01-16T14:28:24.871Z,100175.15
2019-01-16T14:34:45.038Z,100181.28
2019-01-16T14:41:14.281Z,100162.05
2019-01-16T14:47:53.752Z,100162.48
2019-01-16T14:54:33.591Z,100151.55
2019-01-16T15:00:56.818Z,100148.94
2019-01-16T15:07:21.492Z,100139.36
2019-01-16T15:14:01.229Z,100138.47
2019-01-16T15:20:39.416Z,100131.49
2019-01-16T15:27:03.077Z,100127.11
2019-01-16T15:33:34.537Z,100125.36
2019-01-16T15:40:01.606Z,100114.87
2019-01-16T15:46:25.258Z,100092.61
2019-01-16T15:52:49.363Z,100088.25
2019-01-16T15:59:13.867Z,100070.33
2019-01-16T16:05:41.062Z,100043.24
2019-01-16T16:12:20.435Z,100047.20
2019-01-16T16:18:52.973Z,100045.91
2019-01-16T16:25:10.220Z,100024.50
2019-01-16T16:31:26.974Z,100002.69
2019-01-16T16:37:51.310Z,100014.91
2019-01-16T16:44:22.437Z,100006.18
2019-01-16T16:50:47.637Z,99999.67
2019-01-16T16:57:18.134Z,99999.67
2019-01-16T17:03:43.035Z,100000.54
2019-01-16T17:09:58.368Z,99994.45
2019-01-16T17:16:21.464Z,99994.86
2019-01-16T17:22:52.867Z,99985.27
2019-01-16T17:29:16.144Z,99983.05
2019-01-16T17:35:37.351Z,99971.27
2019-01-16T17:42:08.078Z,99955.58
2019-01-16T17:48:29.436Z,99959.08
2019-01-16T17:55:00.215Z,99953.38
2019-01-16T18:01:23.647Z,99957.31
2019-01-16T18:07:51.237Z,99941.13
2019-01-16T18:14:22.239Z,99931.53
2019-01-16T18:20:52.955Z,99933.25
2019-01-16T18:27:37.835Z,99925.39
2019-01-16T18:33:57.626Z,99907.92
2019-01-16T18:40:14.600Z,99919.72
2019-01-16T18:46:45.071Z,99919.71
2019-01-16T18:53:02.248Z,99917.12
2019-01-16T18:59:43.741Z,99917.14
2019-01-16T19:06:08.361Z,99905.35
2019-01-16T19:12:34.578Z,99894.89
2019-01-16T19:18:48.483Z,99909.30
2019-01-16T19:25:11.770Z,99888.78
2019-01-16T19:31:51.191Z,99886.61
2019-01-16T19:38:24.897Z,99872.23
2019-01-16T19:44:49.702Z,99883.58
2019-01-16T19:51:15.282Z,99853.47
2019-01-16T19:57:33.647Z,99846.47
2019-01-16T20:03:51.524Z,99839.06
2019-01-16T20:10:25.107Z,99820.80
2019-01-16T20:16:48.320Z,99820.80
2019-01-16T20:23:19.117Z,99819.91
2019-01-16T20:29:56.040Z,99821.67
2019-01-16T20:36:23.643Z,99813.78
2019-01-16T20:42:46.787Z,99798.96
2019-01-16T20:49:16.149Z,99801.16
2019-01-16T20:55:30.896Z,99796.77
2019-01-16T21:01:55.999Z,99786.73
2019-01-16T21:08:12.579Z,99786.29
2019-01-16T21:14:44.710Z,99780.63
2019-01-16T21:21:01.009Z,99781.50
2019-01-16T21:27:32.389Z,99788.94
2019-01-16T21:34:00.065Z,99778.88
2019-01-16T21:40:42.131Z,99765.78
2019-01-16T21:47:19.963Z,99756.62
2019-01-16T21:53:53.766Z,99750.94
2019-01-16T22:00:17.667Z,99750.94
2019-01-16T22:06:37.513Z,99733.88
2019-01-16T22:13:17.276Z,99736.95
2019-01-16T22:19:43.306Z,99734.33
2019-01-16T22:26:02.494Z,99733.92
2019-01-16T22:32:35.058Z,99731.71
2019-01-16T22:39:00.388Z,99741.33
2019-01-16T22:45:29.148Z,99730.37
2019-01-16T22:51:50.638Z,99741.73
2019-01-16T22:58:14.302Z,99732.58
2019-01-16T23:04:38.972Z,99720.34
2019-01-16T23:11:14.176Z,99712.10
2019-01-16T23:17:38.838Z,99708.59
2019-01-16T23:24:04.785Z,99709.86
2019-01-16T23:30:31.919Z,99720.81
2019-01-16T23:36:59.791Z,99710.83
2019-01-16T23:43:23.868Z,99706.06
2019-01-16T23:49:57.465Z,99703.06
2019-01-16T23:56:23.472Z,99705.30
